Time;durP1;ratioP1;P1;durP2;ratioP2;P2;SDS_P1;SDS_P2;PMS_P1;PMS_P2;Temp;Humidity;BMP_temperature;BMP_pressure;BME280_temperature;BME280_humidity;BME280_pressure;Samples;Min_cycle;Max_cycle;Signal;HPM_P1;HPM_P2
2024/01/22 00:00:10;;;;;;;4.88;2.30;;;9.20;80.60;;;;;;6212432;23;20016;-80
2024/01/22 00:02:38;;;;;;;6.13;2.33;;;9.00;80.40;;;;;;6187004;23;20010;-81
2024/01/22 00:05:04;;;;;;;4.63;2.20;;;9.30;80.50;;;;;;6187360;23;19993;-81
2024/01/22 00:07:31;;;;;;;4.90;2.20;;;9.10;80.50;;;;;;6185971;23;19996;-83
2024/01/22 00:09:57;;;;;;;4.03;1.90;;;9.10;80.30;;;;;;6187614;23;20057;-81
2024/01/22 00:12:23;;;;;;;4.25;2.00;;;9.10;80.50;;;;;;6187624;23;19998;-81
2024/01/22 00:14:50;;;;;;;5.45;2.17;;;9.00;80.40;;;;;;6214532;23;20032;-81
2024/01/22 00:17:17;;;;;;;4.00;1.80;;;9.10;80.60;;;;;;6190025;23;20017;-81
2024/01/22 00:19:43;;;;;;;5.53;2.35;;;9.00;80.50;;;;;;6189790;23;20012;-81
2024/01/22 00:22:09;;;;;;;3.90;1.67;;;9.10;80.60;;;;;;6188651;23;20009;-80
2024/01/22 00:24:37;;;;;;;3.60;1.88;;;9.20;80.70;;;;;;6188166;23;19996;-83
2024/01/22 00:27:04;;;;;;;4.55;1.90;;;9.20;80.70;;;;;;6164705;23;20024;-80
2024/01/22 00:29:30;;;;;;;3.85;1.92;;;9.10;80.70;;;;;;6188146;23;20004;-83
2024/01/22 00:31:56;;;;;;;5.55;2.28;;;9.30;80.80;;;;;;6189093;23;20009;-81
2024/01/22 00:34:27;;;;;;;4.28;2.13;;;9.40;80.80;;;;;;6214775;23;19993;-81
2024/01/22 00:36:53;;;;;;;3.13;1.75;;;9.10;80.70;;;;;;6165470;23;20057;-82
2024/01/22 00:39:19;;;;;;;5.35;1.90;;;9.10;80.70;;;;;;6188538;23;19989;-80
2024/01/22 00:41:45;;;;;;;3.65;1.85;;;9.10;80.80;;;;;;6189273;23;19997;-81
2024/01/22 00:44:11;;;;;;;4.55;1.90;;;9.20;80.80;;;;;;6187928;23;20151;-81
2024/01/22 00:46:39;;;;;;;4.68;1.98;;;9.60;81.10;;;;;;6214712;23;20188;-81
2024/01/22 00:49:05;;;;;;;4.95;1.90;;;9.10;80.70;;;;;;6189263;23;19994;-80
2024/01/22 00:51:33;;;;;;;3.95;1.88;;;9.10;80.80;;;;;;6189372;23;19989;-82
2024/01/22 00:54:01;;;;;;;4.25;1.90;;;9.10;80.80;;;;;;6214545;23;19996;-82
2024/01/22 00:56:27;;;;;;;4.90;1.90;;;9.10;80.80;;;;;;6188563;23;20019;-82
2024/01/22 00:58:53;;;;;;;4.05;1.90;;;9.10;80.90;;;;;;6189469;23;19993;-81
2024/01/22 01:01:19;;;;;;;4.05;1.73;;;9.00;80.80;;;;;;6164819;23;19993;-81
2024/01/22 01:03:45;;;;;;;3.90;1.75;;;9.10;80.80;;;;;;6189023;23;20012;-81
2024/01/22 01:06:14;;;;;;;4.07;1.80;;;9.10;80.80;;;;;;6190089;23;20019;-82
2024/01/22 01:08:41;;;;;;;3.40;1.60;;;9.10;80.90;;;;;;6213863;23;20013;-83
2024/01/22 01:11:09;;;;;;;4.03;1.90;;;9.10;80.80;;;;;;6165130;23;19997;-81
2024/01/22 01:13:35;;;;;;;4.95;2.05;;;9.10;80.90;;;;;;6188849;23;20028;-81
2024/01/22 01:16:01;;;;;;;4.45;1.63;;;9.10;80.80;;;;;;6188388;23;20012;-83
2024/01/22 01:18:28;;;;;;;3.38;1.70;;;9.10;80.90;;;;;;6188465;23;20009;-83
2024/01/22 01:20:54;;;;;;;3.85;1.85;;;9.10;80.90;;;;;;6140633;23;19996;-82
2024/01/22 01:23:21;;;;;;;3.95;1.70;;;9.00;80.90;;;;;;6187722;23;19989;-82
2024/01/22 01:25:49;;;;;;;4.22;1.85;;;9.00;80.90;;;;;;6214346;23;19997;-82
2024/01/22 01:28:16;;;;;;;3.38;1.70;;;9.20;81.10;;;;;;6188261;23;20012;-81
2024/01/22 01:30:44;;;;;;;3.47;1.60;;;9.20;81.00;;;;;;6214663;23;19997;-82
2024/01/22 01:33:10;;;;;;;4.10;1.48;;;9.00;80.90;;;;;;6164411;23;19989;-82
2024/01/22 01:35:37;;;;;;;6.35;2.15;;;9.10;81.00;;;;;;6188663;23;20005;-82
2024/01/22 01:38:03;;;;;;;4.90;1.83;;;9.20;81.10;;;;;;6164153;23;20024;-81
2024/01/22 01:40:29;;;;;;;4.20;1.88;;;9.00;81.00;;;;;;6188753;23;20017;-81
2024/01/22 01:42:55;;;;;;;4.43;1.88;;;9.10;81.10;;;;;;6164280;23;19989;-81
2024/01/22 01:45:21;;;;;;;3.15;1.55;;;9.20;81.20;;;;;;6164400;23;20040;-81
2024/01/22 01:47:54;;;;;;;4.95;1.80;;;9.10;81.10;;;;;;6213705;23;20008;-81
2024/01/22 01:50:20;;;;;;;3.97;1.77;;;9.10;81.10;;;;;;6188702;23;19993;-81
2024/01/22 01:52:49;;;;;;;4.15;1.98;;;9.10;81.20;;;;;;6188009;23;19985;-83
2024/01/22 01:55:15;;;;;;;5.03;1.83;;;9.20;81.20;;;;;;6188923;23;20001;-81
2024/01/22 01:57:43;;;;;;;4.05;1.85;;;9.10;81.10;;;;;;6213933;23;19989;-81
2024/01/22 02:00:09;;;;;;;5.07;1.70;;;9.20;81.20;;;;;;6189031;23;19996;-82
2024/01/22 02:02:39;;;;;;;3.00;1.40;;;9.10;81.10;;;;;;6188050;23;19985;-82
2024/01/22 02:05:07;;;;;;;4.75;1.60;;;9.10;81.20;;;;;;6214016;23;19989;-81
2024/01/22 02:07:34;;;;;;;3.40;1.40;;;9.10;81.20;;;;;;6188290;23;19989;-80
2024/01/22 02:10:00;;;;;;;2.60;1.38;;;9.10;81.20;;;;;;6187763;23;20000;-81
2024/01/22 02:12:27;;;;;;;4.05;1.75;;;9.40;81.40;;;;;;6187781;23;20004;-82
2024/01/22 02:14:53;;;;;;;3.95;1.48;;;9.30;81.40;;;;;;6163911;23;20003;-82
2024/01/22 02:17:19;;;;;;;2.88;1.50;;;9.20;81.30;;;;;;6163468;23;20000;-81
2024/01/22 02:19:46;;;;;;;4.22;1.60;;;9.10;81.30;;;;;;6188393;23;20001;-80
2024/01/22 02:22:12;;;;;;;3.70;1.63;;;9.10;81.20;;;;;;6187338;23;19997;-80
2024/01/22 02:24:39;;;;;;;3.72;1.55;;;9.20;81.30;;;;;;6163469;23;20020;-81
2024/01/22 02:27:06;;;;;;;2.92;1.48;;;9.10;81.30;;;;;;6139383;23;19985;-80
2024/01/22 02:29:32;;;;;;;2.42;1.20;;;9.10;81.30;;;;;;6188069;23;20001;-81
2024/01/22 02:31:58;;;;;;;4.70;1.60;;;9.10;81.30;;;;;;6188179;23;20048;-82
2024/01/22 02:34:27;;;;;;;3.92;1.48;;;9.10;81.30;;;;;;6213424;23;20044;-82
2024/01/22 02:36:53;;;;;;;3.53;1.60;;;9.10;81.30;;;;;;6187730;23;20021;-80
2024/01/22 02:39:19;;;;;;;2.60;1.33;;;9.00;81.30;;;;;;6137922;23;19986;-80
2024/01/22 02:41:46;;;;;;;3.03;1.40;;;9.00;81.30;;;;;;6213632;23;19994;-81
2024/01/22 02:44:12;;;;;;;3.65;1.70;;;9.10;81.40;;;;;;6188075;23;20113;-82
2024/01/22 02:46:41;;;;;;;3.33;1.55;;;9.20;81.30;;;;;;6213597;23;20009;-83
2024/01/22 02:49:09;;;;;;;3.70;1.50;;;9.00;81.30;;;;;;6187643;23;19993;-81
2024/01/22 02:51:36;;;;;;;4.22;1.83;;;9.10;81.30;;;;;;6188075;23;20048;-81
2024/01/22 02:54:04;;;;;;;2.95;1.40;;;9.90;81.80;;;;;;6187970;23;20003;-82
2024/01/22 02:56:31;;;;;;;3.38;1.42;;;9.10;81.20;;;;;;6188227;23;20047;-81
2024/01/22 02:58:58;;;;;;;3.55;1.40;;;9.10;81.30;;;;;;6163541;23;19998;-80
2024/01/22 03:01:26;;;;;;;2.22;1.10;;;9.10;81.30;;;;;;6212575;23;20013;-83
2024/01/22 03:03:53;;;;;;;2.80;1.35;;;9.10;81.30;;;;;;6213244;23;20009;-81
2024/01/22 03:06:19;;;;;;;2.22;1.08;;;9.00;81.30;;;;;;6185646;23;19989;-82
2024/01/22 03:08:45;;;;;;;2.88;1.40;;;9.10;81.30;;;;;;6187127;23;19996;-80
2024/01/22 03:11:12;;;;;;;2.85;1.40;;;9.10;81.40;;;;;;6187614;23;20000;-81
2024/01/22 03:13:38;;;;;;;2.70;1.23;;;9.20;81.90;;;;;;6162614;23;19998;-81
2024/01/22 03:16:07;;;;;;;2.33;1.23;;;9.20;81.50;;;;;;6186978;23;20072;-81
2024/01/22 03:18:33;;;;;;;3.00;1.42;;;9.20;81.40;;;;;;6188119;23;20077;-82
2024/01/22 03:21:03;;;;;;;2.53;1.30;;;9.20;81.50;;;;;;6212921;23;19989;-82
2024/01/22 03:23:31;;;;;;;3.78;1.50;;;9.20;81.50;;;;;;6187923;23;20005;-81
2024/01/22 03:25:57;;;;;;;3.00;1.40;;;9.20;81.50;;;;;;6188164;23;19989;-82
2024/01/22 03:28:23;;;;;;;3.50;1.40;;;9.30;81.60;;;;;;6163319;23;20005;-81
2024/01/22 03:30:50;;;;;;;2.33;1.17;;;9.00;81.30;;;;;;6187201;23;19997;-81
2024/01/22 03:33:17;;;;;;;2.72;1.40;;;9.20;81.60;;;;;;6187568;23;19989;-81
2024/01/22 03:35:43;;;;;;;2.72;1.30;;;9.20;81.60;;;;;;6187233;23;20020;-81
2024/01/22 03:38:09;;;;;;;3.33;1.25;;;9.00;81.50;;;;;;6186018;23;20009;-81
2024/01/22 03:40:37;;;;;;;2.50;1.20;;;9.10;81.50;;;;;;6187318;23;20057;-82
2024/01/22 03:43:03;;;;;;;2.70;1.30;;;8.40;81.20;;;;;;6162930;23;20056;-80
2024/01/22 03:45:33;;;;;;;2.38;1.10;;;9.00;81.50;;;;;;6188033;23;20053;-81
2024/01/22 03:47:59;;;;;;;2.80;1.30;;;9.00;81.50;;;;;;6187739;23;19989;-81
2024/01/22 03:50:26;;;;;;;1.90;1.00;;;9.10;81.50;;;;;;6187803;23;20013;-81
2024/01/22 03:52:52;;;;;;;2.40;1.15;;;9.20;81.60;;;;;;6187773;23;20020;-81
2024/01/22 03:55:19;;;;;;;3.50;1.35;;;9.10;81.60;;;;;;6187095;23;19993;-82
2024/01/22 03:57:45;;;;;;;2.97;1.10;;;9.00;81.50;;;;;;6187272;23;20049;-83
2024/01/22 04:00:15;;;;;;;2.63;1.23;;;9.10;81.60;;;;;;6162976;23;20008;-80
2024/01/22 04:02:41;;;;;;;2.25;1.20;;;9.20;81.70;;;;;;6187736;23;19993;-82
2024/01/22 04:05:09;;;;;;;2.38;1.10;;;9.20;81.60;;;;;;6187390;23;20012;-81
2024/01/22 04:07:35;;;;;;;1.77;1.00;;;9.10;81.70;;;;;;6159785;23;20000;-82
2024/01/22 04:10:03;;;;;;;2.53;1.10;;;9.10;81.70;;;;;;6186827;23;19990;-82
2024/01/22 04:12:29;;;;;;;3.45;1.20;;;9.00;81.60;;;;;;6187091;23;19997;-81
2024/01/22 04:14:55;;;;;;;2.00;1.25;;;9.10;81.70;;;;;;6187001;23;19997;-81
2024/01/22 04:17:23;;;;;;;2.42;1.08;;;9.10;81.70;;;;;;6188000;23;19993;-82
2024/01/22 04:19:49;;;;;;;2.38;0.93;;;9.00;81.70;;;;;;6187384;23;19989;-81
2024/01/22 04:22:15;;;;;;;2.42;1.30;;;9.00;81.70;;;;;;6186896;23;20052;-81
2024/01/22 04:24:41;;;;;;;1.80;0.80;;;9.20;81.90;;;;;;6187206;23;19989;-84
2024/01/22 04:29:44;;;;;;;2.20;0.98;;;9.10;81.80;;;;;;6211502;23;20019;-84
2024/01/22 04:32:13;;;;;;;3.17;1.10;;;9.10;81.80;;;;;;6187664;23;20009;-82
2024/01/22 04:34:40;;;;;;;2.42;1.10;;;9.10;81.80;;;;;;6157123;23;19990;-81
2024/01/22 04:37:07;;;;;;;2.22;1.00;;;9.20;81.90;;;;;;6155574;23;20006;-81
2024/01/22 04:39:36;;;;;;;3.60;1.42;;;9.10;81.90;;;;;;6155699;23;20009;-81
2024/01/22 04:42:02;;;;;;;1.75;1.00;;;9.10;81.90;;;;;;6182077;23;19990;-81
2024/01/22 04:44:30;;;;;;;2.22;1.00;;;9.10;81.90;;;;;;6155810;23;20017;-81
2024/01/22 04:46:57;;;;;;;1.50;0.90;;;9.10;81.90;;;;;;6155956;23;20002;-81
2024/01/22 04:49:25;;;;;;;2.40;0.90;;;9.10;81.90;;;;;;6180531;23;19996;-82
2024/01/22 04:51:51;;;;;;;2.30;0.95;;;9.20;82.00;;;;;;6156050;23;20013;-81
2024/01/22 04:54:17;;;;;;;2.05;1.00;;;9.20;82.00;;;;;;6155451;23;19993;-80
2024/01/22 04:56:45;;;;;;;1.20;0.82;;;9.10;82.10;;;;;;6150078;23;20037;-81
2024/01/22 04:59:11;;;;;;;1.40;0.90;;;9.20;82.10;;;;;;6156752;23;20054;-81
2024/01/22 05:01:37;;;;;;;1.60;0.80;;;10.50;82.80;;;;;;6157133;23;19998;-81
2024/01/22 05:04:04;;;;;;;1.27;0.88;;;10.30;82.70;;;;;;6153726;23;19986;-80
2024/01/22 05:06:30;;;;;;;2.05;1.00;;;9.20;82.10;;;;;;6151876;23;20023;-79
2024/01/22 05:08:56;;;;;;;2.63;1.00;;;9.40;82.30;;;;;;6151865;23;20069;-80
2024/01/22 05:11:22;;;;;;;2.20;0.88;;;9.20;82.20;;;;;;6152642;23;20049;-81
2024/01/22 05:13:53;;;;;;;2.00;1.00;;;9.30;82.20;;;;;;6179864;23;20004;-80
2024/01/22 05:16:21;;;;;;;2.60;1.00;;;9.20;82.20;;;;;;6179394;23;20001;-80
2024/01/22 05:18:48;;;;;;;2.80;1.20;;;9.50;82.40;;;;;;6178055;23;19990;-80
2024/01/22 05:21:15;;;;;;;1.77;0.93;;;9.20;82.30;;;;;;6152439;23;20014;-79
2024/01/22 05:23:41;;;;;;;1.23;0.80;;;9.00;82.30;;;;;;6156394;23;20014;-80
2024/01/22 05:26:07;;;;;;;2.72;0.98;;;9.00;82.20;;;;;;6155139;23;20017;-81
2024/01/22 05:28:33;;;;;;;1.60;0.80;;;9.30;82.30;;;;;;6155536;23;20017;-80
2024/01/22 05:31:00;;;;;;;2.50;1.00;;;9.30;82.40;;;;;;6181437;23;20001;-80
2024/01/22 05:33:26;;;;;;;2.00;0.82;;;9.90;82.80;;;;;;6156152;23;20000;-79
2024/01/22 05:35:52;;;;;;;1.45;0.82;;;9.20;82.50;;;;;;6156934;23;20069;-80
2024/01/22 05:38:18;;;;;;;1.88;0.73;;;9.20;82.40;;;;;;6157818;23;20029;-80
2024/01/22 05:40:44;;;;;;;1.48;0.80;;;9.20;82.40;;;;;;6158029;23;20000;-83
2024/01/22 05:43:10;;;;;;;1.98;0.90;;;9.30;82.40;;;;;;6156691;23;20041;-81
2024/01/22 05:45:36;;;;;;;2.20;0.93;;;10.30;83.00;;;;;;6157678;23;19996;-82
2024/01/22 05:48:02;;;;;;;2.20;1.05;;;9.20;82.40;;;;;;6157556;23;20061;-80
2024/01/22 05:50:28;;;;;;;1.92;1.10;;;9.10;82.60;;;;;;6157684;23;19990;-80
2024/01/22 05:52:53;;;;;;;1.67;0.90;;;9.20;82.60;;;;;;6182520;23;20031;-81
2024/01/22 05:55:20;;;;;;;2.40;0.98;;;10.40;83.30;;;;;;6181687;23;20012;-81
2024/01/22 05:57:47;;;;;;;1.67;0.90;;;9.30;82.60;;;;;;6181607;23;20005;-81
2024/01/22 06:00:14;;;;;;;2.60;1.10;;;9.90;82.90;;;;;;6182709;23;20009;-80
2024/01/22 06:02:40;;;;;;;2.78;1.00;;;9.20;82.70;;;;;;6181824;23;20108;-80
2024/01/22 06:05:07;;;;;;;1.67;0.90;;;9.10;82.60;;;;;;6157800;23;19990;-80
2024/01/22 06:07:33;;;;;;;1.85;0.90;;;9.20;82.50;;;;;;6157284;23;20033;-81
2024/01/22 06:09:59;;;;;;;2.05;0.80;;;9.30;82.60;;;;;;6157608;23;19994;-80
2024/01/22 06:12:28;;;;;;;3.20;1.00;;;9.30;82.70;;;;;;6157448;23;20005;-80
2024/01/22 06:14:54;;;;;;;1.98;0.80;;;9.10;82.60;;;;;;6157414;23;20005;-80
2024/01/22 06:17:24;;;;;;;1.33;0.80;;;9.20;82.60;;;;;;6155264;23;20040;-82
2024/01/22 06:19:53;;;;;;;2.55;0.90;;;9.30;82.70;;;;;;6174503;23;20008;-82
2024/01/22 06:22:20;;;;;;;1.85;0.68;;;9.10;82.70;;;;;;6160566;23;20009;-81
2024/01/22 06:24:50;;;;;;;1.73;0.80;;;9.10;82.60;;;;;;6123821;23;20021;-81
2024/01/22 06:27:18;;;;;;;1.08;0.70;;;9.10;82.70;;;;;;6128021;23;20011;-79
2024/01/22 06:29:43;;;;;;;1.00;0.70;;;9.20;82.80;;;;;;6145374;23;20029;-80
2024/01/22 06:32:10;;;;;;;1.27;0.80;;;9.20;82.80;;;;;;6177405;23;20044;-80
2024/01/22 06:34:36;;;;;;;2.22;0.85;;;9.10;82.80;;;;;;6151189;23;20006;-80
2024/01/22 06:37:04;;;;;;;1.52;0.88;;;9.10;82.70;;;;;;6147316;23;20089;-79
2024/01/22 06:39:30;;;;;;;0.85;0.70;;;9.10;82.70;;;;;;6157933;23;20020;-81
2024/01/22 06:41:57;;;;;;;1.92;0.77;;;9.10;82.80;;;;;;6133184;23;19989;-81
2024/01/22 06:44:24;;;;;;;1.85;0.90;;;9.20;82.80;;;;;;6157577;23;20001;-81
2024/01/22 06:46:50;;;;;;;1.80;0.60;;;9.70;83.10;;;;;;6132485;23;19989;-81
2024/01/22 06:49:18;;;;;;;2.10;0.88;;;9.20;82.90;;;;;;6157986;23;19994;-81
2024/01/22 06:51:47;;;;;;;2.85;0.90;;;9.10;82.90;;;;;;6157009;23;19994;-80
2024/01/22 06:54:13;;;;;;;2.30;0.90;;;9.10;82.90;;;;;;6157215;23;19994;-80
2024/01/22 06:56:40;;;;;;;2.13;0.85;;;9.20;83.00;;;;;;6132968;23;20017;-81
2024/01/22 06:59:07;;;;;;;2.05;0.77;;;9.00;82.80;;;;;;6157410;23;19989;-81
2024/01/22 07:01:35;;;;;;;1.92;0.90;;;9.00;82.90;;;;;;6183133;23;19990;-82
2024/01/22 07:04:03;;;;;;;1.52;0.70;;;9.10;82.90;;;;;;6157783;23;20005;-81
2024/01/22 07:06:32;;;;;;;1.40;0.75;;;9.10;83.00;;;;;;6156406;23;19997;-81
2024/01/22 07:09:01;;;;;;;1.52;0.68;;;9.20;83.00;;;;;;6155164;23;19997;-82
2024/01/22 07:11:31;;;;;;;3.17;0.95;;;9.20;83.10;;;;;;6158176;23;20025;-82
2024/01/22 07:13:58;;;;;;;1.80;0.80;;;9.10;83.00;;;;;;6133904;23;20064;-80
2024/01/22 07:16:26;;;;;;;1.10;0.57;;;9.20;83.10;;;;;;6157512;23;20064;-81
2024/01/22 07:18:54;;;;;;;1.00;0.68;;;9.30;83.10;;;;;;6182549;23;19989;-81
2024/01/22 07:21:21;;;;;;;1.85;0.65;;;9.30;83.10;;;;;;6182847;23;20004;-81
2024/01/22 07:23:56;;;;;;;1.38;0.73;;;9.10;83.10;;;;;;6157375;23;20060;-81
2024/01/22 07:26:22;;;;;;;1.02;0.60;;;9.10;83.10;;;;;;6157849;23;20009;-83
2024/01/22 07:28:50;;;;;;;1.45;0.75;;;9.20;83.20;;;;;;6156878;23;20012;-82
2024/01/22 07:31:21;;;;;;;1.00;0.60;;;9.20;83.20;;;;;;6157120;23;19994;-82
2024/01/22 07:33:48;;;;;;;1.33;0.50;;;9.10;83.10;;;;;;6158226;23;19996;-81
2024/01/22 07:36:18;;;;;;;1.13;0.57;;;9.30;83.20;;;;;;6182929;23;20004;-82
2024/01/22 07:38:54;;;;;;;1.15;0.70;;;9.20;83.20;;;;;;6181425;23;20017;-82
2024/01/22 07:41:21;;;;;;;0.63;0.50;;;9.10;83.10;;;;;;6159721;23;19990;-81
2024/01/22 07:43:47;;;;;;;0.98;0.50;;;9.20;83.20;;;;;;6157715;23;20032;-81
2024/01/22 07:46:14;;;;;;;1.42;0.60;;;9.20;83.30;;;;;;6157496;23;20009;-83
2024/01/22 07:48:42;;;;;;;0.85;0.60;;;9.20;83.30;;;;;;6182881;23;20049;-82
2024/01/22 07:51:13;;;;;;;1.45;0.70;;;9.30;83.30;;;;;;6182767;23;19989;-81
2024/01/22 07:53:43;;;;;;;1.02;0.55;;;9.20;83.20;;;;;;6133035;23;20005;-81
2024/01/22 07:56:10;;;;;;;0.70;0.60;;;9.20;83.20;;;;;;6155594;23;20010;-81
2024/01/22 07:58:41;;;;;;;1.58;0.70;;;9.30;83.20;;;;;;6158392;23;19997;-81
2024/01/22 08:01:09;;;;;;;0.98;0.70;;;9.30;83.20;;;;;;6157953;23;20013;-82
2024/01/22 08:03:38;;;;;;;0.90;0.63;;;9.30;83.40;;;;;;6182104;23;19998;-81
2024/01/22 08:06:05;;;;;;;2.35;0.77;;;9.20;83.30;;;;;;6132968;23;20009;-81
2024/01/22 08:08:33;;;;;;;1.33;0.65;;;9.10;83.20;;;;;;6133278;23;20001;-81
2024/01/22 08:11:00;;;;;;;1.73;0.60;;;9.20;83.30;;;;;;6157421;23;20440;-81
2024/01/22 08:13:27;;;;;;;1.80;0.60;;;9.20;83.30;;;;;;6183350;23;19990;-81
2024/01/22 08:15:56;;;;;;;0.60;0.60;;;9.20;83.30;;;;;;6181113;23;20065;-81
2024/01/22 08:18:23;;;;;;;0.93;0.50;;;9.20;83.30;;;;;;6157970;23;20017;-82
2024/01/22 08:20:51;;;;;;;0.85;0.60;;;9.10;83.30;;;;;;6132045;23;20017;-81
2024/01/22 08:23:18;;;;;;;0.90;0.60;;;9.30;83.40;;;;;;6157402;23;19990;-81
2024/01/22 08:25:47;;;;;;;0.98;0.68;;;9.10;83.30;;;;;;6132539;23;20001;-81
2024/01/22 08:28:15;;;;;;;1.08;0.57;;;9.20;83.40;;;;;;6182485;23;19989;-81
2024/01/22 08:30:41;;;;;;;1.00;0.60;;;9.20;83.40;;;;;;6157478;23;19994;-81
2024/01/22 08:33:10;;;;;;;0.55;0.50;;;9.30;83.50;;;;;;6182554;23;20017;-81
2024/01/22 08:35:37;;;;;;;1.40;0.63;;;9.10;83.40;;;;;;6134906;23;20032;-81
2024/01/22 08:38:04;;;;;;;0.65;0.50;;;9.20;83.40;;;;;;6159026;23;20013;-83
2024/01/22 08:40:30;;;;;;;0.82;0.45;;;9.20;83.40;;;;;;6158917;23;20033;-81
2024/01/22 08:42:59;;;;;;;0.50;0.50;;;9.30;83.50;;;;;;6184861;23;20012;-80
2024/01/22 08:45:27;;;;;;;1.85;0.60;;;9.20;83.50;;;;;;6159078;23;19986;-81
2024/01/22 08:47:55;;;;;;;1.00;0.60;;;10.10;84.10;;;;;;6158323;23;20053;-83
2024/01/22 08:50:23;;;;;;;0.43;0.43;;;9.20;83.50;;;;;;6183475;23;20017;-82
2024/01/22 08:52:52;;;;;;;1.42;0.60;;;9.20;83.50;;;;;;6158788;23;20032;-81
2024/01/22 08:55:22;;;;;;;1.52;0.70;;;9.20;83.60;;;;;;6134601;23;20075;-81
2024/01/22 08:57:53;;;;;;;0.73;0.40;;;9.50;83.70;;;;;;6158615;23;20045;-80
2024/01/22 09:00:20;;;;;;;1.17;0.50;;;9.20;83.60;;;;;;6135052;23;20002;-81
2024/01/22 09:02:49;;;;;;;1.27;0.50;;;9.10;83.60;;;;;;6184236;23;20034;-83
2024/01/22 09:05:17;;;;;;;0.50;0.40;;;9.00;83.50;;;;;;6134254;23;19990;-81
2024/01/22 09:07:47;;;;;;;0.50;0.50;;;9.20;83.60;;;;;;6158361;23;20000;-83
2024/01/22 09:10:17;;;;;;;0.68;0.50;;;9.10;83.60;;;;;;6112662;23;20024;-82
2024/01/22 09:12:48;;;;;;;0.82;0.60;;;9.20;83.70;;;;;;6158876;23;20041;-81
2024/01/22 09:15:19;;;;;;;0.70;0.40;;;9.10;83.60;;;;;;6157733;23;19990;-81
2024/01/22 09:17:48;;;;;;;0.70;0.55;;;9.10;83.50;;;;;;6158404;23;19989;-82
2024/01/22 09:20:16;;;;;;;0.77;0.60;;;9.30;83.70;;;;;;6153118;23;20001;-82
2024/01/22 09:22:43;;;;;;;0.95;0.52;;;9.20;83.60;;;;;;6158341;23;19993;-81
2024/01/22 09:25:09;;;;;;;0.75;0.55;;;9.30;83.70;;;;;;6158876;23;20020;-81
2024/01/22 09:27:44;;;;;;;0.65;0.40;;;9.20;83.70;;;;;;6183722;23;19989;-82
2024/01/22 09:30:12;;;;;;;;;;;9.10;83.60;;;;;;6182375;23;20061;-81
2024/01/22 09:32:41;;;;;;;1.10;0.55;;;9.20;83.60;;;;;;6183829;23;19948;-81
2024/01/22 09:35:14;;;;;;;0.88;0.50;;;9.20;83.60;;;;;;6158285;23;20053;-81
2024/01/22 09:37:40;;;;;;;0.40;0.40;;;8.90;83.50;;;;;;6158087;23;20040;-81
2024/01/22 09:40:21;;;;;;;0.47;0.45;;;9.20;83.70;;;;;;6136706;23;20020;-81
2024/01/22 09:42:50;;;;;;;0.70;0.50;;;9.10;83.50;;;;;;6133982;23;20009;-81
2024/01/22 09:45:17;;;;;;;1.27;0.70;;;9.30;83.70;;;;;;6157057;23;19990;-82
2024/01/22 09:47:46;;;;;;;0.80;0.60;;;9.20;83.70;;;;;;6183987;23;19990;-81
2024/01/22 09:50:12;;;;;;;0.63;0.50;;;9.10;83.60;;;;;;6158019;23;20049;-81
2024/01/22 09:52:45;;;;;;;0.50;0.40;;;9.10;83.60;;;;;;6157962;23;19990;-81
2024/01/22 09:55:14;;;;;;;1.88;0.55;;;9.20;83.70;;;;;;6184000;23;19986;-82
2024/01/22 09:57:44;;;;;;;1.75;0.45;;;9.10;83.60;;;;;;6181664;23;20010;-81
2024/01/22 10:00:15;;;;;;;1.13;0.55;;;9.20;83.70;;;;;;6134800;23;20032;-84
2024/01/22 10:02:42;;;;;;;0.63;0.40;;;9.20;83.70;;;;;;6184033;23;19994;-82
2024/01/22 10:05:15;;;;;;;0.70;0.50;;;9.20;83.80;;;;;;6183645;23;20224;-81
2024/01/22 10:07:42;;;;;;;0.80;0.50;;;9.20;83.70;;;;;;6182053;23;19999;-81
2024/01/22 10:10:09;;;;;;;0.90;0.50;;;9.20;83.70;;;;;;6133984;23;19989;-81
2024/01/22 10:13:02;;;;;;;0.80;0.50;;;9.20;83.70;;;;;;6132037;23;20005;-83
2024/01/22 10:15:30;;;;;;;1.52;0.60;;;9.30;83.80;;;;;;6158718;23;20016;-81
2024/01/22 10:18:12;;;;;;;1.58;0.68;;;9.10;83.60;;;;;;6157446;23;19997;-81
2024/01/22 10:20:40;;;;;;;1.05;0.52;;;9.20;83.70;;;;;;6158424;23;20000;-81
2024/01/22 10:23:08;;;;;;;1.95;0.68;;;9.10;83.70;;;;;;6158768;23;19993;-82
2024/01/22 10:25:35;;;;;;;0.77;0.52;;;9.20;83.70;;;;;;6184028;23;19990;-81
2024/01/22 10:28:21;;;;;;;0.88;0.50;;;9.20;83.70;;;;;;6157903;23;20000;-81
2024/01/22 10:31:05;;;;;;;0.55;0.45;;;9.30;83.80;;;;;;6158290;23;19997;-81
2024/01/22 10:33:33;;;;;;;0.95;0.40;;;9.30;83.80;;;;;;6158073;23;19997;-81
2024/01/22 10:36:15;;;;;;;1.90;0.70;;;9.20;83.70;;;;;;6133910;23;20028;-81
2024/01/22 10:38:44;;;;;;;2.25;0.77;;;9.20;83.70;;;;;;6158717;23;19990;-81
2024/01/22 10:41:19;;;;;;;0.95;0.50;;;9.20;83.80;;;;;;6135027;23;19989;-84
2024/01/22 10:43:46;;;;;;;1.15;0.52;;;9.30;83.80;;;;;;6158780;23;20005;-83
2024/01/22 10:46:25;;;;;;;1.52;0.60;;;9.10;83.70;;;;;;6182727;23;20020;-81
2024/01/22 10:48:57;;;;;;;0.50;0.43;;;9.10;83.70;;;;;;6152638;23;19993;-81
2024/01/22 10:51:25;;;;;;;1.00;0.52;;;9.20;83.70;;;;;;6157982;23;20037;-82
2024/01/22 10:53:53;;;;;;;1.00;0.65;;;9.20;83.80;;;;;;6181401;23;19990;-83
2024/01/22 10:56:28;;;;;;;1.30;0.50;;;9.20;83.70;;;;;;6181041;23;19998;-81
2024/01/22 10:58:59;;;;;;;0.40;0.40;;;9.20;83.80;;;;;;6156590;23;20049;-84
2024/01/22 11:01:26;;;;;;;0.88;0.50;;;9.30;83.80;;;;;;6159581;23;19998;-81
2024/01/22 11:03:57;;;;;;;1.20;0.70;;;9.30;83.80;;;;;;6153038;23;20008;-81
2024/01/22 11:06:24;;;;;;;1.08;0.60;;;9.20;83.80;;;;;;6158224;23;20016;-81
2024/01/22 11:08:53;;;;;;;1.23;0.50;;;9.20;83.80;;;;;;6183506;23;20005;-82
2024/01/22 11:14:01;;;;;;;0.63;0.40;;;9.20;83.80;;;;;;6198528;23;19923;-82
2024/01/22 11:16:30;;;;;;;0.70;0.57;;;9.20;83.80;;;;;;6187671;23;20053;-83
2024/01/22 11:19:03;;;;;;;1.58;0.60;;;9.20;83.80;;;;;;6163809;23;20002;-81
2024/01/22 11:21:37;;;;;;;1.20;0.70;;;9.20;83.80;;;;;;6213694;23;20045;-82
2024/01/22 11:24:16;;;;;;;0.65;0.57;;;9.30;83.80;;;;;;6187893;23;19985;-83
2024/01/22 11:27:05;;;;;;;0.82;0.50;;;9.30;83.80;;;;;;6211616;23;20008;-82
2024/01/22 11:29:35;;;;;;;0.73;0.50;;;9.30;83.80;;;;;;6187677;23;19989;-81
2024/01/22 11:32:26;;;;;;;1.05;0.50;;;9.00;83.70;;;;;;6163734;23;19996;-81
2024/01/22 11:35:01;;;;;;;0.93;0.50;;;9.20;83.80;;;;;;6170721;23;20012;-82
2024/01/22 11:37:40;;;;;;;1.23;0.60;;;9.30;83.90;;;;;;6211967;23;20008;-81
2024/01/22 11:40:07;;;;;;;1.17;0.50;;;9.30;83.90;;;;;;6164085;23;19996;-83
2024/01/22 11:42:38;;;;;;;2.00;0.75;;;9.30;83.80;;;;;;6212412;23;19989;-81
2024/01/22 11:45:10;;;;;;;1.58;0.50;;;9.20;83.80;;;;;;6163835;23;20012;-83
2024/01/22 11:47:39;;;;;;;1.73;0.70;;;9.20;83.80;;;;;;6213379;23;19996;-81
2024/01/22 11:50:07;;;;;;;1.83;0.60;;;9.20;83.80;;;;;;6187513;23;20024;-82
2024/01/22 11:52:35;;;;;;;1.77;0.60;;;9.30;83.90;;;;;;6187116;23;20020;-82
2024/01/22 11:55:06;;;;;;;2.28;0.70;;;9.30;83.90;;;;;;6188128;23;20061;-82
2024/01/22 11:57:36;;;;;;;1.42;0.55;;;9.20;83.80;;;;;;6162879;23;20008;-81
2024/01/22 12:00:05;;;;;;;1.27;0.60;;;9.40;83.90;;;;;;6187268;23;20009;-84
2024/01/22 12:02:33;;;;;;;1.25;0.70;;;9.30;83.80;;;;;;6186798;23;20048;-82
2024/01/22 12:05:17;;;;;;;0.68;0.40;;;9.20;83.70;;;;;;6213347;23;20001;-83
2024/01/22 12:07:47;;;;;;;1.48;0.60;;;9.10;83.70;;;;;;6188143;23;20055;-82
2024/01/22 12:10:27;;;;;;;0.60;0.52;;;9.10;83.70;;;;;;6213332;23;19997;-83
2024/01/22 12:13:04;;;;;;;1.30;0.57;;;9.20;83.80;;;;;;6189728;23;20001;-82
2024/01/22 12:15:32;;;;;;;0.80;0.50;;;9.30;83.80;;;;;;6189649;23;19993;-83
2024/01/22 12:18:06;;;;;;;1.25;0.50;;;9.40;83.90;;;;;;6209932;23;19986;-82
2024/01/22 12:20:33;;;;;;;0.90;0.55;;;9.30;83.80;;;;;;6166454;23;20000;-81
2024/01/22 12:23:04;;;;;;;1.85;0.60;;;9.20;83.80;;;;;;6213104;23;19989;-81
2024/01/22 12:25:40;;;;;;;1.58;0.50;;;9.10;83.70;;;;;;6189696;23;19986;-81
2024/01/22 12:28:08;;;;;;;0.70;0.60;;;9.40;83.80;;;;;;6189144;23;20058;-81
2024/01/22 12:30:38;;;;;;;0.95;0.70;;;9.20;83.70;;;;;;6214419;23;20009;-81
2024/01/22 12:33:05;;;;;;;1.48;0.73;;;9.20;83.70;;;;;;6164892;23;20013;-82
2024/01/22 12:35:32;;;;;;;1.10;0.60;;;9.10;83.70;;;;;;6141146;23;19997;-81
2024/01/22 12:38:09;;;;;;;0.80;0.50;;;9.30;83.80;;;;;;6164708;23;19996;-83
2024/01/22 12:40:39;;;;;;;1.05;0.70;;;9.30;83.80;;;;;;6188822;23;20044;-82
2024/01/22 12:43:07;;;;;;;1.35;0.60;;;9.40;83.80;;;;;;6165063;23;20027;-81
2024/01/22 12:45:33;;;;;;;2.00;0.60;;;9.40;83.80;;;;;;6164844;23;20000;-81
2024/01/22 12:48:03;;;;;;;1.52;0.82;;;9.20;83.70;;;;;;6214660;23;19997;-81
2024/01/22 12:50:32;;;;;;;2.03;0.63;;;9.40;83.80;;;;;;6164235;23;19996;-81
2024/01/22 12:53:01;;;;;;;1.02;0.60;;;9.30;83.70;;;;;;6188646;23;19989;-82
2024/01/22 12:55:31;;;;;;;;;;;9.30;83.70;;;;;;6215329;23;20000;-83
2024/01/22 12:57:57;;;;;;;1.05;0.47;;;9.20;83.60;;;;;;6187610;23;19895;-81
2024/01/22 13:00:30;;;;;;;2.72;0.60;;;9.30;83.60;;;;;;6214764;23;19999;-81
2024/01/22 13:03:07;;;;;;;2.37;0.70;;;9.20;84.10;;;;;;6213143;23;20036;-81
2024/01/22 13:05:36;;;;;;;0.93;0.50;;;9.30;83.60;;;;;;6189431;23;20228;-82
2024/01/22 13:08:04;;;;;;;0.85;0.60;;;9.30;83.60;;;;;;6189352;23;19981;-81